createdAt,value
2018-09-14T00:00:50.124Z,47.2
2018-09-14T00:02:50.198Z,55.4
2018-09-14T00:04:49.593Z,53.2
2018-09-14T00:06:49.818Z,58.3
2018-09-14T00:08:49.951Z,57.2
2018-09-14T00:10:49.953Z,55.9
2018-09-14T00:12:49.956Z,55.9
2018-09-14T00:14:49.991Z,54.6
2018-09-14T00:16:50.074Z,57.2
2018-09-14T00:18:50.088Z,59.6
2018-09-14T00:20:50.217Z,59.6
2018-09-14T00:22:50.186Z,56.5
2018-09-14T00:24:50.290Z,56.5
2018-09-14T00:26:49.519Z,54.6
2018-09-14T00:28:49.610Z,58.8
2018-09-14T00:30:49.658Z,58.8
2018-09-14T00:32:49.657Z,53.8
2018-09-14T00:34:50.069Z,57.8
2018-09-14T00:36:50.175Z,54.2
2018-09-14T00:38:50.249Z,57.9
2018-09-14T00:40:50.289Z,57.9
2018-09-14T00:42:49.555Z,59.4
2018-09-14T00:44:49.588Z,56.7
2018-09-14T00:46:49.938Z,63.0
2018-09-14T00:48:49.925Z,67.8
2018-09-14T00:50:49.993Z,67.8
2018-09-14T00:52:50.044Z,68.9
2018-09-14T00:54:50.091Z,64.3
2018-09-14T00:56:50.305Z,62.1
2018-09-14T00:58:50.300Z,63.7
2018-09-14T01:00:49.464Z,63.7
2018-09-14T01:02:49.554Z,58.2
2018-09-14T01:04:49.939Z,64.2
2018-09-14T01:06:50.120Z,67.8
2018-09-14T01:08:50.254Z,67.8
2018-09-14T01:10:50.259Z,66.0
2018-09-14T01:12:50.377Z,65.7
2018-09-14T01:14:50.390Z,61.7
2018-09-14T01:16:49.600Z,61.7
2018-09-14T01:18:49.737Z,65.2
2018-09-14T01:20:49.766Z,65.3
2018-09-14T01:22:49.762Z,63.1
2018-09-14T01:24:49.757Z,63.7
2018-09-14T01:26:49.832Z,65.6
2018-09-14T01:28:49.970Z,65.6
2018-09-14T01:30:50.012Z,66.6
2018-09-14T01:32:50.113Z,67.5
2018-09-14T01:34:50.424Z,70.8
2018-09-14T01:36:49.643Z,71.4
2018-09-14T01:38:49.718Z,71.4
2018-09-14T01:40:49.703Z,69.7
2018-09-14T01:42:49.723Z,68.9
2018-09-14T01:44:49.739Z,70.0
2018-09-14T01:46:49.962Z,73.4
2018-09-14T01:48:49.915Z,73.4
2018-09-14T01:50:49.940Z,67.9
2018-09-14T01:52:49.974Z,69.4
2018-09-14T01:54:50.003Z,67.6
2018-09-14T01:56:50.009Z,67.6
2018-09-14T01:58:50.037Z,69.7
2018-09-14T02:00:50.067Z,65.6
2018-09-14T02:02:50.028Z,69.1
2018-09-14T02:04:50.280Z,69.2
2018-09-14T02:06:49.457Z,69.2
2018-09-14T02:08:49.823Z,72.9
2018-09-14T02:10:49.816Z,64.4
2018-09-14T02:12:49.813Z,71.6
2018-09-14T02:14:49.835Z,75.9
2018-09-14T02:16:49.969Z,75.9
2018-09-14T02:18:49.956Z,81.8
2018-09-14T02:20:50.046Z,71.9
2018-09-14T02:22:50.181Z,73.6
2018-09-14T02:24:50.235Z,71.3
2018-09-14T02:26:49.530Z,71.3
2018-09-14T02:28:49.616Z,76.4
2018-09-14T02:30:49.662Z,72.2
2018-09-14T02:32:49.763Z,68.6
2018-09-14T02:34:50.283Z,68.6
2018-09-14T02:36:49.579Z,65.8
2018-09-14T02:38:49.611Z,69.6
2018-09-14T02:40:49.628Z,72.7
2018-09-14T02:42:49.695Z,71.7
2018-09-14T02:44:49.786Z,71.7
2018-09-14T02:46:49.944Z,70.7
2018-09-14T02:48:49.965Z,66.2
2018-09-14T02:50:50.096Z,72.0
2018-09-14T02:52:50.144Z,63.7
2018-09-14T02:54:50.187Z,63.7
2018-09-14T02:56:50.327Z,69.9
2018-09-14T02:58:49.469Z,75.5
2018-09-14T03:00:49.461Z,76.0
2018-09-14T03:02:49.559Z,73.6
2018-09-14T03:04:50.120Z,73.6
2018-09-14T03:06:50.397Z,70.3
2018-09-14T03:08:50.406Z,73.6
2018-09-14T03:10:49.460Z,74.9
2018-09-14T03:12:49.635Z,72.5
2018-09-14T03:14:49.692Z,72.5
2018-09-14T03:16:49.965Z,71.1
2018-09-14T03:18:50.051Z,69.9
2018-09-14T03:20:50.313Z,70.6
2018-09-14T03:22:50.311Z,73.5
2018-09-14T03:24:50.311Z,73.5
2018-09-14T03:26:49.485Z,76.3
2018-09-14T03:28:49.564Z,75.8
2018-09-14T03:30:49.623Z,81.8
2018-09-14T03:32:49.680Z,69.3
2018-09-14T03:34:50.070Z,69.3
2018-09-14T03:36:50.228Z,72.3
2018-09-14T03:38:50.231Z,76.6
2018-09-14T03:40:50.271Z,81.5
2018-09-14T03:42:50.323Z,81.5
2018-09-14T03:44:50.330Z,82.4
2018-09-14T03:46:49.487Z,78.0
2018-09-14T03:48:49.638Z,77.4
2018-09-14T03:50:49.668Z,87.7
2018-09-14T03:52:49.670Z,87.7
2018-09-14T03:54:49.665Z,77.2
2018-09-14T03:56:49.920Z,74.7
2018-09-14T03:58:49.913Z,77.0
2018-09-14T04:00:50.040Z,78.6
2018-09-14T04:02:50.028Z,78.6
2018-09-14T04:04:49.458Z,78.0
2018-09-14T04:06:49.708Z,80.6
2018-09-14T04:08:49.722Z,83.1
2018-09-14T04:10:49.896Z,89.0
2018-09-14T04:12:49.936Z,89.0
2018-09-14T04:14:49.922Z,89.7
2018-09-14T04:16:50.142Z,86.0
2018-09-14T04:18:50.118Z,88.3
2018-09-14T04:20:50.374Z,87.5
2018-09-14T04:22:50.384Z,87.5
2018-09-14T04:24:50.400Z,84.1
2018-09-14T04:26:50.182Z,84.3
2018-09-14T04:28:50.264Z,90.7
2018-09-14T04:30:50.245Z,90.7
2018-09-14T04:32:50.286Z,90.3
2018-09-14T04:34:49.760Z,83.7
2018-09-14T04:36:49.922Z,83.7
2018-09-14T04:38:50.000Z,85.3
2018-09-14T04:40:50.004Z,85.3
2018-09-14T04:42:50.146Z,83.8
2018-09-14T04:44:50.201Z,80.1
2018-09-14T04:46:49.463Z,78.3
2018-09-14T04:48:49.453Z,77.4
2018-09-14T04:50:49.660Z,77.4
2018-09-14T04:52:49.703Z,81.7
2018-09-14T04:54:49.702Z,84.9
2018-09-14T04:56:49.717Z,80.8
2018-09-14T04:58:49.687Z,83.7
2018-09-14T05:00:49.657Z,83.7
2018-09-14T05:02:49.665Z,80.1
2018-09-14T05:04:49.998Z,75.5
2018-09-14T05:06:50.265Z,76.7
2018-09-14T05:08:50.251Z,76.7
2018-09-14T05:10:50.299Z,74.1
2018-09-14T05:12:50.234Z,67.2
2018-09-14T05:14:50.270Z,68.8
2018-09-14T05:16:49.494Z,70.2
2018-09-14T05:18:49.488Z,70.2
2018-09-14T05:20:49.576Z,70.2
2018-09-14T05:22:49.688Z,69.0
2018-09-14T05:24:49.714Z,68.5
2018-09-14T05:26:49.920Z,68.5
2018-09-14T05:28:49.887Z,74.5
2018-09-14T05:30:49.926Z,72.3
2018-09-14T05:32:50.004Z,70.3
2018-09-14T05:34:50.402Z,76.0
2018-09-14T05:36:50.040Z,77.1
2018-09-14T05:38:50.085Z,77.1
2018-09-14T05:40:50.117Z,75.7
2018-09-14T05:42:50.120Z,76.6
2018-09-14T05:44:50.323Z,73.9
2018-09-14T05:46:49.542Z,73.9
2018-09-14T05:48:49.586Z,70.1
2018-09-14T05:50:49.605Z,68.0
2018-09-14T05:52:49.723Z,63.3
2018-09-14T05:54:49.717Z,68.3
2018-09-14T05:56:49.912Z,65.6
2018-09-14T05:58:49.911Z,65.6
2018-09-14T06:00:49.931Z,60.8
2018-09-14T06:02:49.951Z,60.8
2018-09-14T06:04:50.299Z,58.3
2018-09-14T06:06:49.584Z,59.3
2018-09-14T06:08:49.720Z,59.3
2018-09-14T06:10:49.697Z,56.4
2018-09-14T06:12:49.669Z,59.8
2018-09-14T06:14:49.744Z,57.1
2018-09-14T06:16:50.143Z,59.1
2018-09-14T06:18:50.282Z,59.1
2018-09-14T06:20:50.305Z,62.9
2018-09-14T06:22:50.314Z,62.9
2018-09-14T06:24:49.782Z,50.1
2018-09-14T06:26:49.983Z,50.1
2018-09-14T06:28:50.044Z,56.4
2018-09-14T06:30:50.037Z,57.8
2018-09-14T06:32:50.087Z,57.1
2018-09-14T06:34:50.407Z,50.5
2018-09-14T06:36:49.609Z,50.5
2018-09-14T06:38:49.623Z,53.0
2018-09-14T06:40:49.781Z,53.5
2018-09-14T06:42:49.947Z,50.9
2018-09-14T06:44:50.042Z,50.9
2018-09-14T06:46:49.477Z,50.5
2018-09-14T06:48:49.600Z,52.8
2018-09-14T06:50:49.639Z,46.8
2018-09-14T06:52:49.642Z,44.6
2018-09-14T06:54:49.845Z,44.6
2018-09-14T06:56:50.211Z,45.7
2018-09-14T06:58:49.491Z,43.9
2018-09-14T07:00:49.885Z,39.3
2018-09-14T07:02:49.928Z,39.3
2018-09-14T07:04:49.450Z,41.8
2018-09-14T07:06:49.644Z,39.1
2018-09-14T07:08:49.612Z,36.5
2018-09-14T07:10:49.603Z,36.5
2018-09-14T07:12:49.604Z,44.2
2018-09-14T07:14:49.682Z,44.2
2018-09-14T07:16:49.932Z,44.1
2018-09-14T07:18:50.005Z,44.7
2018-09-14T07:20:50.024Z,43.0
2018-09-14T07:22:50.068Z,43.0
2018-09-14T07:24:50.197Z,42.8
2018-09-14T07:26:50.117Z,40.8
2018-09-14T07:28:50.329Z,40.1
2018-09-14T07:30:49.639Z,40.1
2018-09-14T07:32:50.013Z,39.0
2018-09-14T07:34:49.467Z,41.3
2018-09-14T07:36:49.661Z,41.3
2018-09-14T07:38:49.689Z,46.7
2018-09-14T07:40:49.705Z,42.7
2018-09-14T07:42:49.916Z,42.7
2018-09-14T07:44:49.978Z,42.9
2018-09-14T07:46:50.225Z,34.4
2018-09-14T07:48:50.319Z,37.3
2018-09-14T07:50:50.317Z,36.6
2018-09-14T07:52:50.411Z,36.6
2018-09-14T07:54:49.487Z,36.5
2018-09-14T07:56:49.613Z,36.5
2018-09-14T07:58:49.759Z,34.9
2018-09-14T08:00:49.727Z,34.9
2018-09-14T08:02:49.683Z,39.2
2018-09-14T08:04:49.896Z,38.8
2018-09-14T08:06:50.110Z,37.4
2018-09-14T08:08:50.301Z,33.9
2018-09-14T08:10:50.394Z,34.1
2018-09-14T08:12:50.384Z,34.1
2018-09-14T08:14:49.501Z,36.7
2018-09-14T08:16:49.643Z,34.3
2018-09-14T08:18:49.632Z,31.3
2018-09-14T08:20:49.644Z,34.0
2018-09-14T08:22:49.692Z,34.0
2018-09-14T08:24:49.666Z,39.0
2018-09-14T08:26:50.241Z,35.6
2018-09-14T08:28:49.793Z,32.6
2018-09-14T08:30:49.816Z,36.8
2018-09-14T08:32:49.887Z,36.8
2018-09-14T08:34:50.213Z,32.0
2018-09-14T08:36:49.512Z,41.2
2018-09-14T08:38:49.870Z,31.7
2018-09-14T08:40:49.970Z,31.7
2018-09-14T08:42:49.995Z,31.7
2018-09-14T08:44:49.942Z,32.5
2018-09-14T08:46:50.133Z,29.1
2018-09-14T08:48:50.169Z,30.5
2018-09-14T08:50:50.188Z,30.5
2018-09-14T08:52:50.264Z,29.5
2018-09-14T08:54:50.377Z,35.4
2018-09-14T08:56:49.905Z,29.4
2018-09-14T08:58:49.920Z,30.5
2018-09-14T09:00:50.045Z,30.5
2018-09-14T09:02:49.594Z,27.8
2018-09-14T09:04:50.048Z,28.2
2018-09-14T09:06:50.216Z,28.2
2018-09-14T09:08:50.277Z,26.9
2018-09-14T09:10:50.268Z,26.9
2018-09-14T09:12:49.460Z,31.6
2018-09-14T09:14:49.531Z,26.3
2018-09-14T09:16:49.960Z,24.3
2018-09-14T09:18:49.942Z,24.9
2018-09-14T09:20:49.927Z,24.9
2018-09-14T09:22:49.934Z,24.3
2018-09-14T09:24:49.951Z,24.8
2018-09-14T09:26:50.197Z,23.0
2018-09-14T09:28:50.155Z,23.0
2018-09-14T09:30:50.209Z,35.1
2018-09-14T09:32:50.222Z,22.1
2018-09-14T09:34:49.601Z,25.7
2018-09-14T09:36:49.853Z,20.1
2018-09-14T09:38:49.854Z,20.1
2018-09-14T09:40:49.818Z,21.5
2018-09-14T09:42:49.811Z,18.7
2018-09-14T09:44:49.873Z,18.7
2018-09-14T09:46:50.037Z,16.7
2018-09-14T09:48:50.135Z,16.7
2018-09-14T09:50:50.144Z,77.7
2018-09-14T09:52:49.650Z,17.5
2018-09-14T09:54:49.700Z,17.3
2018-09-14T09:56:49.961Z,21.9
2018-09-14T09:58:50.399Z,21.9
2018-09-14T10:00:49.557Z,19.0
2018-09-14T10:02:49.575Z,20.2
2018-09-14T10:04:50.114Z,19.5
2018-09-14T10:06:49.870Z,19.5
2018-09-14T10:08:49.959Z,20.8
2018-09-14T10:10:49.939Z,19.4
2018-09-14T10:12:49.948Z,18.2
2018-09-14T10:14:50.012Z,19.5
2018-09-14T10:16:50.233Z,19.5
2018-09-14T10:18:50.261Z,18.6
2018-09-14T10:20:50.438Z,18.1
2018-09-14T10:22:49.928Z,17.1
2018-09-14T10:24:49.919Z,17.6
2018-09-14T10:26:50.059Z,17.6
2018-09-14T10:28:49.680Z,26.1
2018-09-14T10:30:49.935Z,17.0
2018-09-14T10:32:50.034Z,17.0
2018-09-14T10:34:49.484Z,14.7
2018-09-14T10:36:49.753Z,14.7
2018-09-14T10:38:49.801Z,15.1
2018-09-14T10:40:49.963Z,15.3
2018-09-14T10:42:49.461Z,15.3
2018-09-14T10:44:49.932Z,14.0
2018-09-14T10:46:50.108Z,14.0
2018-09-14T10:48:50.193Z,14.0
2018-09-14T10:50:49.723Z,14.0
2018-09-14T10:52:49.727Z,14.6
2018-09-14T10:54:49.761Z,14.6
2018-09-14T10:56:50.159Z,13.8
2018-09-14T10:58:50.192Z,16.8
2018-09-14T11:00:50.214Z,14.7
2018-09-14T11:02:49.570Z,29.6
2018-09-14T11:04:49.957Z,14.3
2018-09-14T11:06:50.059Z,14.3
2018-09-14T11:08:50.266Z,13.8
2018-09-14T11:10:50.323Z,13.8
2018-09-14T11:12:50.254Z,14.4
2018-09-14T11:14:49.634Z,14.4
2018-09-14T11:16:49.843Z,14.5
2018-09-14T11:18:49.858Z,15.6
2018-09-14T11:20:49.956Z,15.6
2018-09-14T11:22:49.881Z,15.3
2018-09-14T11:24:50.058Z,13.6
2018-09-14T11:26:49.426Z,13.0
2018-09-14T11:28:50.388Z,13.9
2018-09-14T11:30:50.409Z,14.4
2018-09-14T11:32:50.299Z,14.4
2018-09-14T11:34:49.714Z,12.7
2018-09-14T11:36:49.812Z,12.7
2018-09-14T11:38:49.984Z,13.1
2018-09-14T11:40:49.983Z,40.6
2018-09-14T11:42:49.909Z,40.6
2018-09-14T11:44:49.901Z,13.4
2018-09-14T11:46:50.004Z,12.5
2018-09-14T11:48:50.095Z,11.2
2018-09-14T11:50:50.146Z,11.2
2018-09-14T11:52:50.105Z,17.4
2018-09-14T11:54:50.149Z,13.4
2018-09-14T11:56:50.432Z,13.4
2018-09-14T11:58:49.529Z,14.7
2018-09-14T12:00:49.659Z,35.0
2018-09-14T12:02:49.634Z,35.0
2018-09-14T12:04:49.803Z,16.3
2018-09-14T12:06:49.915Z,30.2
2018-09-14T12:08:49.946Z,13.2
2018-09-14T12:10:49.950Z,13.2
2018-09-14T12:12:50.179Z,9.5
2018-09-14T12:14:50.126Z,11.9
2018-09-14T12:16:50.428Z,9.3
2018-09-14T12:18:49.427Z,9.3
2018-09-14T12:20:49.437Z,8.9
2018-09-14T12:22:50.397Z,8.9
2018-09-14T12:24:49.610Z,10.0
2018-09-14T12:26:49.732Z,30.2
2018-09-14T12:28:49.691Z,9.9
2018-09-14T12:30:49.735Z,9.9
2018-09-14T12:32:49.768Z,8.4
2018-09-14T12:34:50.087Z,7.6
2018-09-14T12:36:50.280Z,7.2
2018-09-14T12:38:50.332Z,7.4
2018-09-14T12:40:50.376Z,7.4
2018-09-14T12:42:49.457Z,7.3
2018-09-14T12:44:49.470Z,7.4
2018-09-14T12:46:49.771Z,6.6
2018-09-14T12:48:49.918Z,6.6
2018-09-14T12:50:49.776Z,7.1
2018-09-14T12:52:50.227Z,7.4
2018-09-14T12:54:50.239Z,7.6
2018-09-14T12:56:50.448Z,8.3
2018-09-14T12:58:50.405Z,8.3
2018-09-14T13:00:49.522Z,8.3
2018-09-14T13:02:49.654Z,7.1
2018-09-14T13:04:50.348Z,7.1
2018-09-14T13:06:49.954Z,6.9
2018-09-14T13:08:49.992Z,6.8
2018-09-14T13:10:50.074Z,6.8
2018-09-14T13:12:50.060Z,6.4
2018-09-14T13:14:50.071Z,6.1
2018-09-14T13:16:49.678Z,6.1
2018-09-14T13:18:49.747Z,6.9
2018-09-14T13:20:49.749Z,6.9
2018-09-14T13:22:49.724Z,6.4
2018-09-14T13:24:49.770Z,7.2
2018-09-14T13:26:50.074Z,7.2
2018-09-14T13:28:50.056Z,7.3
2018-09-14T13:30:50.169Z,7.3
2018-09-14T13:32:50.169Z,7.0
2018-09-14T13:34:49.687Z,7.2
2018-09-14T13:36:50.009Z,7.2
2018-09-14T13:38:49.973Z,6.9
2018-09-14T13:40:50.126Z,6.9
2018-09-14T13:42:50.062Z,7.8
2018-09-14T13:44:50.256Z,7.0
2018-09-14T13:46:49.771Z,6.1
2018-09-14T13:48:50.019Z,6.1
2018-09-14T13:50:50.011Z,6.1
2018-09-14T13:52:50.051Z,9.5
2018-09-14T13:54:49.453Z,6.7
2018-09-14T13:56:49.720Z,7.1
2018-09-14T13:58:49.728Z,7.1
2018-09-14T14:00:49.743Z,7.7
2018-09-14T14:02:49.796Z,6.9
2018-09-14T14:04:50.094Z,6.6
2018-09-14T14:06:50.342Z,6.1
2018-09-14T14:08:49.440Z,6.1
2018-09-14T14:10:49.641Z,6.5
2018-09-14T14:12:49.855Z,6.2
2018-09-14T14:14:49.919Z,7.0
2018-09-14T14:16:50.137Z,6.3
2018-09-14T14:18:50.335Z,6.3
2018-09-14T14:20:49.467Z,6.2
2018-09-14T14:22:49.476Z,6.0
2018-09-14T14:24:49.446Z,5.4
2018-09-14T14:26:49.619Z,5.2
2018-09-14T14:28:49.694Z,5.2
2018-09-14T14:30:49.855Z,5.3
2018-09-14T14:32:50.088Z,5.3
2018-09-14T14:34:49.848Z,7.9
2018-09-14T14:36:49.906Z,7.9
2018-09-14T14:38:50.041Z,6.4
2018-09-14T14:40:50.113Z,6.8
2018-09-14T14:42:50.210Z,6.3
2018-09-14T14:44:50.307Z,8.2
2018-09-14T14:46:50.673Z,8.2
2018-09-14T14:48:50.197Z,6.9
2018-09-14T14:50:50.140Z,6.5
2018-09-14T14:52:50.368Z,6.5
2018-09-14T14:54:50.415Z,6.7
2018-09-14T14:56:49.673Z,6.7
2018-09-14T14:58:49.660Z,6.7
2018-09-14T15:00:49.711Z,6.6
2018-09-14T15:02:50.180Z,6.6
2018-09-14T15:04:49.926Z,6.9
2018-09-14T15:06:49.809Z,6.9
2018-09-14T15:08:49.855Z,7.8
2018-09-14T15:10:50.033Z,7.8
2018-09-14T15:12:49.696Z,7.0
2018-09-14T15:14:49.775Z,7.0
2018-09-14T15:16:49.993Z,7.0
2018-09-14T15:18:50.039Z,6.4
2018-09-14T15:20:50.440Z,6.9
2018-09-14T15:22:49.455Z,6.5
2018-09-14T15:24:50.431Z,7.6
2018-09-14T15:26:49.728Z,7.6
2018-09-14T15:28:49.645Z,6.6
2018-09-14T15:30:49.687Z,7.5
2018-09-14T15:32:49.713Z,12.0
2018-09-14T15:34:49.950Z,12.0
2018-09-14T15:36:50.003Z,7.0
2018-09-14T15:38:50.004Z,7.3
2018-09-14T15:40:49.986Z,7.8
2018-09-14T15:42:49.972Z,7.3
2018-09-14T15:44:49.991Z,7.3
2018-09-14T15:46:50.178Z,7.4
2018-09-14T15:48:50.305Z,6.6
2018-09-14T15:50:50.359Z,6.0
2018-09-14T15:52:50.342Z,6.0
2018-09-14T15:54:50.320Z,6.4
2018-09-14T15:56:49.531Z,8.2
2018-09-14T15:58:49.582Z,10.5
2018-09-14T16:00:49.648Z,7.3
2018-09-14T16:02:49.788Z,7.3
2018-09-14T16:04:50.068Z,6.9
2018-09-14T16:06:50.161Z,7.2
2018-09-14T16:08:50.176Z,8.2
2018-09-14T16:10:50.221Z,8.2
2018-09-14T16:12:50.226Z,7.5
2018-09-14T16:14:49.491Z,8.0
2018-09-14T16:16:49.769Z,7.3
2018-09-14T16:18:49.802Z,6.6
2018-09-14T16:20:50.129Z,6.5
2018-09-14T16:22:50.157Z,6.5
2018-09-14T16:24:50.162Z,6.3
2018-09-14T16:26:50.337Z,6.6
2018-09-14T16:28:50.336Z,6.6
2018-09-14T16:30:50.370Z,6.9
2018-09-14T16:32:50.370Z,6.9
2018-09-14T16:34:50.119Z,6.9
2018-09-14T16:36:50.260Z,6.8
2018-09-14T16:38:50.277Z,6.8
2018-09-14T16:40:50.301Z,6.6
2018-09-14T16:42:49.476Z,6.6
2018-09-14T16:44:49.457Z,6.4
2018-09-14T16:46:49.631Z,7.2
2018-09-14T16:48:49.694Z,7.2
2018-09-14T16:50:49.681Z,7.7
2018-09-14T16:52:49.673Z,7.9
2018-09-14T16:54:50.060Z,7.8
2018-09-14T16:56:50.178Z,9.7
2018-09-14T16:58:50.188Z,7.7
2018-09-14T17:00:50.138Z,7.7
2018-09-14T17:02:50.201Z,9.0
2018-09-14T17:04:49.975Z,7.5
2018-09-14T17:06:50.202Z,7.0
2018-09-14T17:08:50.194Z,6.8
2018-09-14T17:10:50.165Z,6.8
2018-09-14T17:12:50.247Z,6.5
2018-09-14T17:14:50.202Z,6.8
2018-09-14T17:16:49.501Z,6.8
2018-09-14T17:18:49.608Z,7.0
2018-09-14T17:20:49.559Z,7.0
2018-09-14T17:22:49.653Z,6.8
2018-09-14T17:24:49.579Z,6.6
2018-09-14T17:26:49.774Z,6.6
2018-09-14T17:28:49.801Z,10.0
2018-09-14T17:30:49.805Z,7.7
2018-09-14T17:32:50.003Z,7.7
2018-09-14T17:34:50.316Z,9.3
2018-09-14T17:36:49.528Z,8.1
2018-09-14T17:38:49.483Z,8.1
2018-09-14T17:40:49.453Z,8.3
2018-09-14T17:42:49.687Z,7.8
2018-09-14T17:44:49.707Z,8.6
2018-09-14T17:46:49.938Z,7.8
2018-09-14T17:48:50.015Z,7.8
2018-09-14T17:50:50.054Z,8.4
2018-09-14T17:52:50.030Z,8.2
2018-09-14T17:54:49.968Z,7.9
2018-09-14T17:56:50.138Z,7.9
2018-09-14T17:58:50.095Z,7.9
2018-09-14T18:00:50.114Z,11.7
2018-09-14T18:02:50.095Z,8.1
2018-09-14T18:04:49.450Z,9.0
2018-09-14T18:06:49.725Z,9.0
2018-09-14T18:08:49.739Z,10.0
2018-09-14T18:10:49.806Z,8.8
2018-09-14T18:12:49.747Z,8.8
2018-09-14T18:14:49.818Z,8.8
2018-09-14T18:16:50.074Z,8.8
2018-09-14T18:18:50.052Z,9.3
2018-09-14T18:20:50.036Z,9.9
2018-09-14T18:22:49.977Z,11.0
2018-09-14T18:24:50.035Z,11.3
2018-09-14T18:26:50.160Z,11.3
2018-09-14T18:28:50.152Z,11.1
2018-09-14T18:30:50.137Z,10.3
2018-09-14T18:32:50.125Z,12.6
2018-09-14T18:34:49.470Z,12.3
2018-09-14T18:36:49.723Z,12.6
2018-09-14T18:38:49.745Z,12.6
2018-09-14T18:40:49.789Z,11.8
2018-09-14T18:42:49.794Z,13.0
2018-09-14T18:44:49.836Z,13.9
2018-09-14T18:46:50.101Z,13.9
2018-09-14T18:48:49.519Z,12.9
2018-09-14T18:50:49.615Z,13.3
2018-09-14T18:52:49.618Z,13.7
2018-09-14T18:54:49.701Z,13.8
2018-09-14T18:56:49.876Z,13.8
2018-09-14T18:58:49.928Z,13.6
2018-09-14T19:00:49.973Z,15.4
2018-09-14T19:02:50.075Z,16.1
2018-09-14T19:04:49.555Z,16.1
2018-09-14T19:06:49.919Z,16.1
2018-09-14T19:08:49.919Z,14.9
2018-09-14T19:10:49.938Z,16.0
2018-09-14T19:12:49.935Z,16.1
2018-09-14T19:14:49.991Z,16.1
2018-09-14T19:16:50.190Z,15.8
2018-09-14T19:18:49.510Z,16.4
2018-09-14T19:20:49.462Z,17.4
2018-09-14T19:22:49.470Z,18.2
2018-09-14T19:24:49.653Z,18.2
2018-09-14T19:26:50.026Z,19.3
2018-09-14T19:28:50.072Z,17.6
2018-09-14T19:30:50.142Z,17.1
2018-09-14T19:32:50.098Z,17.8
2018-09-14T19:34:50.373Z,17.8
2018-09-14T19:36:49.523Z,20.5
2018-09-14T19:38:49.700Z,20.0
2018-09-14T19:40:49.720Z,20.0
2018-09-14T19:42:49.747Z,18.6
2018-09-14T19:44:49.734Z,18.6
2018-09-14T19:46:49.900Z,21.7
2018-09-14T19:48:49.975Z,20.4
2018-09-14T19:50:49.976Z,19.1
2018-09-14T19:52:49.918Z,21.6
2018-09-14T19:54:49.899Z,21.6
2018-09-14T19:56:50.129Z,20.8
2018-09-14T19:58:50.059Z,19.9
2018-09-14T20:00:50.096Z,20.4
2018-09-14T20:02:50.126Z,20.4
2018-09-14T20:04:49.516Z,20.8
2018-09-14T20:06:49.897Z,20.6
2018-09-14T20:08:49.867Z,19.9
2018-09-14T20:10:49.913Z,23.6
2018-09-14T20:12:49.883Z,20.2
2018-09-14T20:14:49.961Z,20.2
2018-09-14T20:16:50.046Z,21.3
2018-09-14T20:18:50.028Z,20.6
2018-09-14T20:20:50.054Z,19.7
2018-09-14T20:22:50.057Z,19.7
2018-09-14T20:24:50.283Z,19.9
2018-09-14T20:26:49.734Z,20.2
2018-09-14T20:28:49.825Z,21.1
2018-09-14T20:30:49.800Z,21.1
2018-09-14T20:32:49.767Z,21.1
2018-09-14T20:34:50.113Z,22.0
2018-09-14T20:36:50.226Z,23.3
2018-09-14T20:38:50.237Z,23.3
2018-09-14T20:40:50.219Z,22.1
2018-09-14T20:42:50.306Z,22.1
2018-09-14T20:44:50.277Z,23.0
2018-09-14T20:46:49.458Z,21.8
2018-09-14T20:48:49.507Z,22.4
2018-09-14T20:50:49.454Z,22.4
2018-09-14T20:52:49.474Z,23.1
2018-09-14T20:54:49.466Z,22.3
2018-09-14T20:56:49.626Z,22.4
2018-09-14T20:58:49.671Z,23.0
2018-09-14T21:00:49.632Z,22.6
2018-09-14T21:02:49.699Z,22.6
2018-09-14T21:04:49.954Z,22.6
2018-09-14T21:06:50.027Z,23.3
2018-09-14T21:08:49.987Z,23.2
2018-09-14T21:10:50.063Z,22.7
2018-09-14T21:12:50.004Z,22.7
2018-09-14T21:14:50.069Z,23.1
2018-09-14T21:16:50.295Z,23.9
2018-09-14T21:18:50.258Z,26.1
2018-09-14T21:20:49.453Z,26.1
2018-09-14T21:22:49.463Z,24.8
2018-09-14T21:24:49.544Z,24.6
2018-09-14T21:26:49.833Z,25.4
2018-09-14T21:28:49.818Z,26.2
2018-09-14T21:30:49.954Z,26.2
2018-09-14T21:32:50.022Z,25.9
2018-09-14T21:34:50.284Z,24.5
2018-09-14T21:36:49.592Z,25.3
2018-09-14T21:38:49.733Z,26.7
2018-09-14T21:40:49.693Z,26.7
2018-09-14T21:42:49.737Z,25.0
2018-09-14T21:44:49.747Z,25.0
2018-09-14T21:46:49.906Z,24.2
2018-09-14T21:48:49.962Z,24.6
2018-09-14T21:50:50.187Z,23.1
2018-09-14T21:52:50.175Z,22.6
2018-09-14T21:54:50.165Z,22.8
2018-09-14T21:56:50.390Z,22.8
2018-09-14T21:58:50.348Z,22.4
2018-09-14T22:00:49.481Z,21.9
2018-09-14T22:02:49.633Z,24.5
2018-09-14T22:04:50.089Z,20.9
2018-09-14T22:06:50.283Z,21.7
2018-09-14T22:08:50.343Z,21.7
2018-09-14T22:10:50.372Z,21.1
2018-09-14T22:12:50.369Z,20.8
2018-09-14T22:14:50.378Z,21.6
2018-09-14T22:16:49.694Z,21.6
2018-09-14T22:18:49.739Z,22.1
2018-09-14T22:20:49.777Z,20.0
2018-09-14T22:22:49.854Z,21.6
2018-09-14T22:24:49.853Z,21.6
2018-09-14T22:26:49.984Z,21.1
2018-09-14T22:28:49.959Z,21.1
2018-09-14T22:30:49.957Z,20.2
2018-09-14T22:32:49.926Z,20.3
2018-09-14T22:34:50.177Z,21.2
2018-09-14T22:36:50.364Z,20.1
2018-09-14T22:38:49.434Z,20.1
2018-09-14T22:40:49.468Z,20.4
2018-09-14T22:42:49.447Z,20.1
2018-09-14T22:44:49.489Z,20.2
2018-09-14T22:46:49.607Z,20.7
2018-09-14T22:48:49.624Z,20.7
2018-09-14T22:50:49.767Z,20.5
2018-09-14T22:52:49.819Z,20.0
2018-09-14T22:54:50.067Z,21.0
2018-09-14T22:56:50.148Z,21.1
2018-09-14T22:58:50.188Z,21.1
2018-09-14T23:00:50.193Z,21.1
2018-09-14T23:02:50.075Z,21.1
2018-09-14T23:04:49.642Z,21.8
2018-09-14T23:06:49.928Z,21.8
2018-09-14T23:08:49.926Z,20.6
2018-09-14T23:10:49.934Z,24.5
2018-09-14T23:12:50.003Z,22.3
2018-09-14T23:14:49.982Z,22.4
2018-09-14T23:16:50.228Z,22.4
2018-09-14T23:18:50.228Z,24.7
2018-09-14T23:20:50.199Z,23.1
2018-09-14T23:22:50.263Z,23.7
2018-09-14T23:24:50.420Z,23.4
2018-09-14T23:26:49.629Z,23.4
2018-09-14T23:28:49.617Z,22.5
2018-09-14T23:30:49.808Z,23.4
2018-09-14T23:32:49.854Z,21.4
2018-09-14T23:34:50.306Z,21.4
2018-09-14T23:36:49.642Z,23.7
2018-09-14T23:38:49.760Z,23.7
2018-09-14T23:40:49.820Z,21.8
2018-09-14T23:42:49.803Z,21.8
2018-09-14T23:44:49.860Z,21.6
2018-09-14T23:46:50.237Z,22.7
2018-09-14T23:48:50.265Z,21.5
2018-09-14T23:50:50.255Z,21.4
2018-09-14T23:52:50.305Z,21.7
2018-09-14T23:54:49.458Z,21.7
2018-09-14T23:56:49.754Z,21.7
2018-09-14T23:58:49.791Z,21.2
